Strona główna
METAR-TAF:

METAR-TAF

Lotnisko :

Praga, Czechy

Port lotniczy Praga im. Václava Havla

Szerokość geograficzna: 50-06N, Długość geograficzna: 014-15E, wysokość: 365 m

Aktualna obserwacja pogody

Raport powstał 12 minut temu, godzina 21:00 UTC
Wiatr 7 kt od wschodnio-północny wschód
Temperatura -10°C
Wilgotność 56%
Ciśnienie 1025 hPa
Widzialność 10 km lub więcej
Brak chmur poniżej 1500 m i brak chmur cumulonimbus

METAR: LKPR 252100Z 06007KT CAVOK M10/M17 Q1025 NOSIG

czas: 22:12 (21:12 UTC)

Prognoza

Raport powstał 4 godziny i 12 minut temu, godzina 17:00 UTC
Prognoza ważna od 25 godzina 18 UTC do 27 godzina 00 UTC
Wiatr 10 kt od północny wschód
Widzialność 10 km lub więcej
Brak chmur poniżej 1500 m i brak chmur cumulonimbus
Przejściowo
od 25 godzina 18 UTC do 27 godzina 00 UTC
Przerywane chmury na wysokości 3000 ft

TAF: LKPR 251700Z 2518/2700 05010KT CAVOK TEMPO 2518/2700 BKN030

Obserwacja i prognoza pogody dla ponad 4000 lotnisk (raport METAR i TAF).

Dostępne stacje oznaczono żółtymi i czerwonymi punktami na mapie.

Najedź kursorem aby zobaczyć nazwę stacji.

Kliknij aby zobaczyć obserwacje i prognozy pogody.

Aby zmienić mapę: kliknij na zielony przycisk z czarnym krzyżykiem, aby powiększyć; na zielony przycisk z myślnikiem, aby pomniejszyć; na zielone strzałki, aby przejść do map sąsiednich.


METAR-TAF: